Terminal Aerodrome Forecast
Issued by NWS Chicago, IL

Home | Current Version | Previous Version | Graphics & Text | Print | Product List | Glossary On
Versions: 1 2 3 4 5 6 7 8 9 10 11 12 13 14 15 16 17 18 19 20 21 22 23 24
000
FTUS43 KLOT 261455 AAA
TAFRFD
TAF AMD
KRFD 261455Z 2615/2712 21008KT P6SM FEW030 BKN150 OVC250
     FM270000 15004KT 6SM -SHRA VCTS OVC045CB
      TEMPO 2700/2703 3SM TSRA OVC025CB
     FM270500 05004KT 6SM BR VCSH SCT025 OVC040
     FM270900 04005KT 5SM BR OVC025=

USA.gov is the U.S. government's official web portal to all federal, state and local government web resources and services.